^^
Grace C. Lehan Memorial Weather Station Historical Data
Daily Summary for February 5, 2021 Units:  English    Metric   Both
Daily Weekly Monthly Yearly
  High: Low: Average:
Temperature: 72.2 °F 61 °F 64.8 °F
Dew Point: 67.6 °F 59.1 °F 62.2 °F
Humidity: 96% 84% 91%
Wind Speed: 0mph 0mph 0mph
Wind Gust: 1mph - -
Wind- -
Pressure: 29.91 in 29.81 in -
Precipitation: 0.00 in    
 
 
Tabular Data for February 5, 2021
Time Temperature Dew Point Pressure Wind Wind Speed Wind Gust Humidity Rainfall Rate (Hourly) solar
00:00 63.1 °F 59.8 °F 29.90 in Calm     89% 0.00 in 0 W/m2
00:09 62.9 °F 59.6 °F 29.91 in Calm     89% 0.00 in 0 W/m2
00:14 62.9 °F 59.6 °F 29.91 in Calm     89.1% 0.00 in 0 W/m2
00:19 62.7 °F 59.8 °F 29.91 in Calm     90% 0.00 in 0 W/m2
00:24 62.6 °F 59.6 °F 29.91 in Calm     90% 0.00 in 0 W/m2
00:29 62.5 °F 59.5 °F 29.91 in Calm     90% 0.00 in 0 W/m2
00:34 62.4 °F 59.4 °F 29.91 in Calm     90% 0.00 in 0 W/m2
00:39 62.3 °F 59.5 °F 29.91 in Calm     90.7% 0.00 in 0 W/m2
00:44 62.2 °F 59.6 °F 29.91 in Calm     91% 0.00 in 0 W/m2
00:49 62.2 °F 59.6 °F 29.91 in Calm     91% 0.00 in 0 W/m2
00:54 62.1 °F 59.5 °F 29.91 in Calm     91% 0.00 in 0 W/m2
00:59 62 °F 59.4 °F 29.90 in Calm     91% 0.00 in 0 W/m2
01:04 62 °F 59.3 °F 29.90 in Calm     91% 0.00 in 0 W/m2
01:09 62 °F 59.6 °F 29.90 in Calm     91.8% 0.00 in 0 W/m2
01:14 62 °F 59.6 °F 29.90 in Calm     92% 0.00 in 0 W/m2
01:19 61.9 °F 59.6 °F 29.89 in Calm     92% 0.00 in 0 W/m2
01:24 61.9 °F 59.6 °F 29.90 in Calm     92% 0.00 in 0 W/m2
01:29 62 °F 59.6 °F 29.90 in Calm     92% 0.00 in 0 W/m2
01:34 62 °F 59.6 °F 29.90 in Calm     92% 0.00 in 0 W/m2
01:39 62 °F 59.6 °F 29.90 in Calm     92% 0.00 in 0 W/m2
01:44 62 °F 59.6 °F 29.89 in Calm     92% 0.00 in 0 W/m2
01:49 62 °F 59.7 °F 29.89 in Calm     92% 0.00 in 0 W/m2
01:54 62 °F 59.6 °F 29.88 in Calm     92% 0.00 in 0 W/m2
01:59 61.9 °F 59.6 °F 29.88 in Calm     92% 0.00 in 0 W/m2
02:04 61.9 °F 59.6 °F 29.88 in Calm     92% 0.00 in 0 W/m2
02:09 61.9 °F 59.5 °F 29.88 in Calm     92% 0.00 in 0 W/m2
02:14 61.8 °F 59.5 °F 29.88 in Calm     92% 0.00 in 0 W/m2
02:19 61.8 °F 59.4 °F 29.88 in Calm     92% 0.00 in 0 W/m2
02:24 61.7 °F 59.4 °F 29.88 in Calm     92% 0.00 in 0 W/m2
02:29 61.7 °F 59.3 °F 29.88 in Calm     92% 0.00 in 0 W/m2
02:34 61.6 °F 59.2 °F 29.88 in Calm     92% 0.00 in 0 W/m2
02:39 61.5 °F 59.1 °F 29.88 in Calm     92% 0.00 in 0 W/m2
02:44 61.4 °F 59.1 °F 29.88 in Calm     92% 0.00 in 0 W/m2
02:49 61.3 °F 59.1 °F 29.87 in Calm     92.3% 0.00 in 0 W/m2
02:54 61.3 °F 59.3 °F 29.87 in Calm     93% 0.00 in 0 W/m2
02:59 61.3 °F 59.3 °F 29.87 in Calm     93% 0.00 in 0 W/m2
03:04 61.4 °F 59.3 °F 29.87 in Calm     93% 0.00 in 0 W/m2
03:09 61.4 °F 59.4 °F 29.86 in Calm     93% 0.00 in 0 W/m2
03:14 61.4 °F 59.4 °F 29.86 in Calm     93% 0.00 in 0 W/m2
03:19 61.4 °F 59.4 °F 29.86 in Calm     93% 0.00 in 0 W/m2
03:24 61.4 °F 59.4 °F 29.86 in Calm     93% 0.00 in 0 W/m2
03:29 61.3 °F 59.3 °F 29.87 in Calm     93% 0.00 in 0 W/m2
03:34 61.3 °F 59.2 °F 29.87 in Calm     93% 0.00 in 0 W/m2
03:39 61.2 °F 59.2 °F 29.87 in Calm     93% 0.00 in 0 W/m2
03:44 61.2 °F 59.2 °F 29.87 in Calm     93% 0.00 in 0 W/m2
03:49 61.2 °F 59.2 °F 29.87 in Calm     93% 0.00 in 0 W/m2
03:54 61.2 °F 59.2 °F 29.87 in Calm     93% 0.00 in 0 W/m2
03:59 61.3 °F 59.4 °F 29.87 in Calm     93.7% 0.00 in 0 W/m2
04:00 61.3 °F 59.6 °F 29.87 in Calm     94% 0.00 in 0 W/m2
04:09 61.4 °F 59.7 °F 29.87 in Calm     94% 0.00 in 0 W/m2
04:14 61.5 °F 59.7 °F 29.87 in Calm     94% 0.00 in 0 W/m2
04:19 61.5 °F 59.8 °F 29.86 in Calm     94% 0.00 in 0 W/m2
04:24 61.5 °F 59.8 °F 29.87 in Calm     94% 0.00 in 0 W/m2
04:29 61.5 °F 59.8 °F 29.87 in Calm     94% 0.00 in 0 W/m2
04:34 61.5 °F 59.8 °F 29.87 in Calm     94% 0.00 in 0 W/m2
04:39 61.5 °F 59.7 °F 29.87 in Calm     94% 0.00 in 0 W/m2
04:44 61.4 °F 59.7 °F 29.87 in Calm     94% 0.00 in 0 W/m2
04:49 61.4 °F 59.7 °F 29.87 in Calm     94% 0.00 in 0 W/m2
04:54 61.4 °F 59.7 °F 29.87 in Calm     94% 0.00 in 0 W/m2
04:59 61.3 °F 59.6 °F 29.87 in Calm     94% 0.00 in 0 W/m2
05:04 61.3 °F 59.6 °F 29.87 in Calm     94% 0.00 in 0 W/m2
05:09 61.3 °F 59.6 °F 29.87 in Calm     94% 0.00 in 0 W/m2
05:14 61.3 °F 59.6 °F 29.87 in Calm     94% 0.00 in 0 W/m2
05:19 61.3 °F 59.6 °F 29.87 in Calm     94% 0.00 in 0 W/m2
05:21 61.3 °F 59.6 °F 29.87 in Calm     94% 0.00 in 0 W/m2
05:30 61.2 °F 59.5 °F 29.87 in Calm     94% 0.00 in 0 W/m2
06:00 61.2 °F 59.5 °F 29.87 in Calm     94% 0.00 in 0 W/m2
06:30 61 °F 59.3 °F 29.87 in Calm     94% 0.00 in 0 W/m2
07:00 61.1 °F 59.7 °F 29.85 in Calm     95% 0.00 in 10 W/m2
07:30 61.8 °F 60.4 °F 29.87 in Calm     95% 0.00 in 33 W/m2
08:04 62.7 °F 61.3 °F 29.87 in Calm     95% 0.00 in 33 W/m2
08:09 62.9 °F 61.6 °F 29.86 in Calm     95.5% 0.00 in 54 W/m2
08:14 63.1 °F 61.9 °F 29.86 in Calm     96% 0.00 in 81 W/m2
08:19 63.3 °F 62.2 °F 29.86 in Calm     96% 0.00 in 107 W/m2
08:24 63.6 °F 62.4 °F 29.86 in Calm     96% 0.00 in 107 W/m2
08:29 63.8 °F 62.6 °F 29.86 in Calm     96% 0.00 in 95 W/m2
08:34 63.9 °F 62.7 °F 29.86 in Calm     95.6% 0.00 in 69 W/m2
08:39 64 °F 62.6 °F 29.86 in Calm     95% 0.00 in 72 W/m2
08:44 64.2 °F 62.7 °F 29.86 in Calm     95% 0.00 in 69 W/m2
08:49 64.3 °F 62.9 °F 29.86 in Calm     95% 0.00 in 62 W/m2
08:54 64.5 °F 63 °F 29.86 in Calm     95% 0.00 in 104 W/m2
08:59 64.7 °F 63.3 °F 29.86 in Calm     95% 0.00 in 120 W/m2
09:04 65 °F 63.5 °F 29.86 in Calm     95% 0.00 in 114 W/m2
09:09 65.3 °F 63.8 °F 29.86 in Calm     95% 0.00 in 100 W/m2
09:14 65.5 °F 64.1 °F 29.86 in Calm     95% 0.00 in 104 W/m2
09:19 65.8 °F 64.3 °F 29.86 in Calm     95% 0.00 in 98 W/m2
09:24 66 °F 64.2 °F 29.86 in Calm     94% 0.00 in 102 W/m2
09:29 66.2 °F 64.4 °F 29.86 in Calm     94% 0.00 in 107 W/m2
09:34 66.4 °F 64.5 °F 29.87 in Calm     93.7% 0.00 in 86 W/m2
09:39 66.4 °F 64.4 °F 29.86 in Calm     93% 0.00 in 70 W/m2
09:44 66.6 °F 64.3 °F 29.86 in Calm     92.4% 0.00 in 60 W/m2
09:49 66.7 °F 64.3 °F 29.86 in Calm     92% 0.00 in 121 W/m2
09:54 66.8 °F 64.1 °F 29.86 in Calm     91.1% 0.00 in 132 W/m2
09:59 67 °F 64.5 °F 29.86 in Calm     91.7% 0.00 in 114 W/m2
10:04 67.3 °F 64.6 °F 29.86 in Calm     91.2% 0.00 in 91 W/m2
10:09 67.5 °F 64.7 °F 29.86 in Calm     90.9% 0.00 in 95 W/m2
10:14 67.6 °F 64.5 °F 29.86 in Calm     90% 0.00 in 95 W/m2
10:19 67.6 °F 64.5 °F 29.85 in Calm     89.6% 0.00 in 111 W/m2
10:24 67.7 °F 64.3 °F 29.86 in Calm     89% 0.00 in 118 W/m2
10:29 67.8 °F 64.2 °F 29.85 in Calm     88.1% 0.00 in 107 W/m2
10:34 68 °F 64.4 °F 29.86 in Calm     88.1% 0.00 in 69 W/m2
10:39 68.1 °F 64.4 °F 29.85 in Calm   1 mph 88% 0.00 in 93 W/m2
10:44 68.3 °F 64.6 °F 29.85 in Calm   1 mph 88% 0.00 in 105 W/m2
10:49 68.4 °F 64.8 °F 29.85 in Calm   1 mph 88.1% 0.00 in 111 W/m2
10:54 68.6 °F 64.9 °F 29.85 in Calm   1 mph 88.1% 0.00 in 109 W/m2
10:59 68.7 °F 65 °F 29.85 in Calm   1 mph 88% 0.00 in 81 W/m2
11:04 68.8 °F 65.1 °F 29.85 in Calm   1 mph 88% 0.00 in 62 W/m2
11:09 68.9 °F 65.2 °F 29.85 in Calm     88% 0.00 in 67 W/m2
11:14 68.9 °F 65.2 °F 29.85 in Calm     88% 0.00 in 84 W/m2
11:19 69 °F 65.7 °F 29.85 in Calm     89% 0.00 in 81 W/m2
11:24 69.1 °F 65.8 °F 29.85 in Calm     89% 0.00 in 72 W/m2
11:29 69.2 °F 65.7 °F 29.85 in Calm     88.7% 0.00 in 74 W/m2
11:34 69.2 °F 65.9 °F 29.84 in Calm     89% 0.00 in 88 W/m2
11:39 69.3 °F 65.9 °F 29.84 in Calm     89% 0.00 in 114 W/m2
11:44 69.4 °F 66.2 °F 29.84 in Calm     89.7% 0.00 in 148 W/m2
11:49 69.5 °F 66.4 °F 29.83 in Calm     90% 0.00 in 160 W/m2
11:54 69.7 °F 66.8 °F 29.83 in Calm     90.6% 0.00 in 193 W/m2
11:59 69.9 °F 67.2 °F 29.83 in Calm     91% 0.00 in 200 W/m2
12:09 70.4 °F 67.6 °F 29.83 in Calm     91% 0.00 in 118 W/m2
12:14 70.5 °F 67.3 °F 29.83 in Calm   1 mph 89.5% 0.00 in 109 W/m2
12:19 70.5 °F 66.8 °F 29.83 in Calm   1 mph 88.2% 0.00 in 109 W/m2
12:24 70.5 °F 66.5 °F 29.83 in Calm   1 mph 87.2% 0.00 in 118 W/m2
12:29 70.6 °F 66.5 °F 29.83 in Calm   1 mph 87% 0.00 in 134 W/m2
12:34 70.7 °F 66.4 °F 29.82 in Calm   1 mph 86.4% 0.00 in 135 W/m2
12:39 70.8 °F 66.5 °F 29.83 in Calm     86.2% 0.00 in 130 W/m2
12:44 71 °F 66.6 °F 29.82 in Calm     86% 0.00 in 139 W/m2
12:49 71.2 °F 66.8 °F 29.82 in Calm     86% 0.00 in 155 W/m2
12:54 71.3 °F 66.9 °F 29.82 in Calm     86% 0.00 in 160 W/m2
12:59 71.5 °F 67 °F 29.82 in Calm     85.8% 0.00 in 160 W/m2
13:04 71.6 °F 67 °F 29.82 in Calm   1 mph 85.3% 0.00 in 134 W/m2
13:09 71.8 °F 67 °F 29.82 in Calm   1 mph 85% 0.00 in 107 W/m2
13:14 71.9 °F 67.1 °F 29.82 in Calm   1 mph 85% 0.00 in 128 W/m2
13:19 72 °F 67.2 °F 29.82 in Calm   1 mph 84.7% 0.00 in 128 W/m2
13:24 72.2 °F 67.3 °F 29.82 in Calm   1 mph 84.8% 0.00 in 121 W/m2
13:29 72.2 °F 67.1 °F 29.82 in Calm   1 mph 84% 0.00 in 107 W/m2
13:33 72.2 °F 67.1 °F 29.81 in Calm   1 mph 84% 0.00 in 118 W/m2
Hartford County Weather
Compliments of Weather Underground - 2 mb